sensor_id;sensor_type;location;lat;lon;timestamp;P1;durP1;ratioP1;P2;durP2;ratioP2
35909;SDS011;22004;49.120;-0.200;2023-07-30T00:01:39;15.18;;;2.90;;
35909;SDS011;22004;49.120;-0.200;2023-07-30T00:04:04;16.08;;;3.00;;
35909;SDS011;22004;49.120;-0.200;2023-07-30T00:06:29;15.43;;;2.90;;
35909;SDS011;22004;49.120;-0.200;2023-07-30T00:08:55;11.02;;;2.28;;
35909;SDS011;22004;49.120;-0.200;2023-07-30T00:11:20;12.52;;;2.92;;
35909;SDS011;22004;49.120;-0.200;2023-07-30T00:13:45;14.02;;;2.90;;
35909;SDS011;22004;49.120;-0.200;2023-07-30T00:16:11;21.58;;;3.22;;
35909;SDS011;22004;49.120;-0.200;2023-07-30T00:18:36;17.55;;;2.75;;
35909;SDS011;22004;49.120;-0.200;2023-07-30T00:21:01;13.02;;;2.72;;
35909;SDS011;22004;49.120;-0.200;2023-07-30T00:23:27;18.88;;;2.85;;
35909;SDS011;22004;49.120;-0.200;2023-07-30T00:25:52;18.65;;;3.25;;
35909;SDS011;22004;49.120;-0.200;2023-07-30T00:28:17;15.90;;;2.60;;
35909;SDS011;22004;49.120;-0.200;2023-07-30T00:30:43;14.40;;;2.70;;
35909;SDS011;22004;49.120;-0.200;2023-07-30T00:33:08;12.90;;;2.67;;
35909;SDS011;22004;49.120;-0.200;2023-07-30T00:35:33;11.05;;;2.70;;
35909;SDS011;22004;49.120;-0.200;2023-07-30T00:37:59;12.02;;;2.92;;
35909;SDS011;22004;49.120;-0.200;2023-07-30T00:40:24;15.00;;;3.20;;
35909;SDS011;22004;49.120;-0.200;2023-07-30T00:42:50;11.15;;;2.53;;
35909;SDS011;22004;49.120;-0.200;2023-07-30T00:45:15;13.80;;;2.88;;
35909;SDS011;22004;49.120;-0.200;2023-07-30T00:47:40;9.57;;;2.58;;
35909;SDS011;22004;49.120;-0.200;2023-07-30T00:50:07;17.50;;;3.42;;
35909;SDS011;22004;49.120;-0.200;2023-07-30T00:52:32;14.75;;;2.63;;
35909;SDS011;22004;49.120;-0.200;2023-07-30T00:54:59;11.73;;;2.65;;
35909;SDS011;22004;49.120;-0.200;2023-07-30T00:57:27;17.70;;;3.00;;
35909;SDS011;22004;49.120;-0.200;2023-07-30T00:59:52;11.02;;;2.95;;
35909;SDS011;22004;49.120;-0.200;2023-07-30T01:02:18;13.38;;;3.00;;
35909;SDS011;22004;49.120;-0.200;2023-07-30T01:04:44;20.63;;;4.05;;
35909;SDS011;22004;49.120;-0.200;2023-07-30T01:07:10;13.82;;;3.42;;
35909;SDS011;22004;49.120;-0.200;2023-07-30T01:09:36;17.38;;;3.13;;
35909;SDS011;22004;49.120;-0.200;2023-07-30T01:12:02;14.05;;;2.78;;
35909;SDS011;22004;49.120;-0.200;2023-07-30T01:14:29;11.77;;;2.30;;
35909;SDS011;22004;49.120;-0.200;2023-07-30T01:16:55;16.05;;;2.67;;
35909;SDS011;22004;49.120;-0.200;2023-07-30T01:19:21;18.27;;;3.03;;
35909;SDS011;22004;49.120;-0.200;2023-07-30T01:21:46;11.95;;;2.13;;
35909;SDS011;22004;49.120;-0.200;2023-07-30T01:24:11;9.50;;;2.67;;
35909;SDS011;22004;49.120;-0.200;2023-07-30T01:26:42;12.65;;;2.67;;
35909;SDS011;22004;49.120;-0.200;2023-07-30T01:29:11;14.07;;;2.65;;
35909;SDS011;22004;49.120;-0.200;2023-07-30T01:31:46;15.70;;;2.72;;
35909;SDS011;22004;49.120;-0.200;2023-07-30T01:34:19;14.35;;;2.70;;
35909;SDS011;22004;49.120;-0.200;2023-07-30T01:36:45;16.67;;;3.22;;
35909;SDS011;22004;49.120;-0.200;2023-07-30T01:39:12;18.40;;;3.20;;
35909;SDS011;22004;49.120;-0.200;2023-07-30T01:41:39;14.60;;;2.88;;
35909;SDS011;22004;49.120;-0.200;2023-07-30T01:44:05;14.30;;;2.45;;
35909;SDS011;22004;49.120;-0.200;2023-07-30T01:46:30;14.82;;;3.05;;
35909;SDS011;22004;49.120;-0.200;2023-07-30T01:48:55;10.52;;;2.70;;
35909;SDS011;22004;49.120;-0.200;2023-07-30T01:51:21;16.25;;;3.03;;
35909;SDS011;22004;49.120;-0.200;2023-07-30T01:53:46;17.00;;;3.25;;
35909;SDS011;22004;49.120;-0.200;2023-07-30T01:56:11;15.63;;;3.40;;
35909;SDS011;22004;49.120;-0.200;2023-07-30T01:58:37;15.05;;;2.65;;
35909;SDS011;22004;49.120;-0.200;2023-07-30T02:01:02;13.50;;;3.05;;
35909;SDS011;22004;49.120;-0.200;2023-07-30T02:03:27;13.07;;;3.42;;
35909;SDS011;22004;49.120;-0.200;2023-07-30T02:05:52;20.67;;;3.30;;
35909;SDS011;22004;49.120;-0.200;2023-07-30T02:08:18;16.23;;;3.10;;
35909;SDS011;22004;49.120;-0.200;2023-07-30T02:10:43;15.77;;;2.85;;
35909;SDS011;22004;49.120;-0.200;2023-07-30T02:13:08;17.23;;;3.13;;
35909;SDS011;22004;49.120;-0.200;2023-07-30T02:15:34;15.60;;;2.70;;
35909;SDS011;22004;49.120;-0.200;2023-07-30T02:17:59;18.85;;;2.90;;
35909;SDS011;22004;49.120;-0.200;2023-07-30T02:20:24;15.80;;;2.88;;
35909;SDS011;22004;49.120;-0.200;2023-07-30T02:22:50;14.32;;;4.13;;
35909;SDS011;22004;49.120;-0.200;2023-07-30T02:25:15;18.50;;;3.17;;
35909;SDS011;22004;49.120;-0.200;2023-07-30T02:27:40;27.33;;;4.10;;
35909;SDS011;22004;49.120;-0.200;2023-07-30T02:30:06;13.10;;;3.15;;
35909;SDS011;22004;49.120;-0.200;2023-07-30T02:32:31;11.52;;;2.78;;
35909;SDS011;22004;49.120;-0.200;2023-07-30T02:34:57;19.90;;;3.40;;
35909;SDS011;22004;49.120;-0.200;2023-07-30T02:37:22;13.52;;;2.88;;
35909;SDS011;22004;49.120;-0.200;2023-07-30T02:39:47;14.25;;;3.63;;
35909;SDS011;22004;49.120;-0.200;2023-07-30T02:42:13;18.63;;;2.78;;
35909;SDS011;22004;49.120;-0.200;2023-07-30T02:44:38;12.82;;;2.75;;
35909;SDS011;22004;49.120;-0.200;2023-07-30T02:47:04;21.05;;;3.33;;
35909;SDS011;22004;49.120;-0.200;2023-07-30T02:49:29;16.88;;;2.90;;
35909;SDS011;22004;49.120;-0.200;2023-07-30T02:51:55;16.88;;;3.35;;
35909;SDS011;22004;49.120;-0.200;2023-07-30T02:54:20;23.88;;;3.58;;
35909;SDS011;22004;49.120;-0.200;2023-07-30T02:56:47;14.93;;;3.03;;
35909;SDS011;22004;49.120;-0.200;2023-07-30T02:59:12;16.90;;;2.97;;
35909;SDS011;22004;49.120;-0.200;2023-07-30T03:01:38;20.50;;;3.65;;
35909;SDS011;22004;49.120;-0.200;2023-07-30T03:04:03;13.15;;;2.78;;
35909;SDS011;22004;49.120;-0.200;2023-07-30T03:06:29;19.02;;;3.53;;
35909;SDS011;22004;49.120;-0.200;2023-07-30T03:08:54;16.30;;;2.90;;
35909;SDS011;22004;49.120;-0.200;2023-07-30T03:11:20;20.00;;;3.10;;
35909;SDS011;22004;49.120;-0.200;2023-07-30T03:13:46;19.55;;;3.38;;
35909;SDS011;22004;49.120;-0.200;2023-07-30T03:16:11;16.77;;;3.40;;
35909;SDS011;22004;49.120;-0.200;2023-07-30T03:18:37;19.00;;;3.22;;
35909;SDS011;22004;49.120;-0.200;2023-07-30T03:21:02;13.10;;;3.00;;
35909;SDS011;22004;49.120;-0.200;2023-07-30T03:23:28;24.60;;;3.83;;
35909;SDS011;22004;49.120;-0.200;2023-07-30T03:25:53;21.25;;;3.47;;
35909;SDS011;22004;49.120;-0.200;2023-07-30T03:28:19;21.25;;;3.22;;
35909;SDS011;22004;49.120;-0.200;2023-07-30T03:30:44;16.83;;;2.88;;
35909;SDS011;22004;49.120;-0.200;2023-07-30T03:33:10;16.40;;;3.35;;
35909;SDS011;22004;49.120;-0.200;2023-07-30T03:35:35;14.57;;;3.17;;
35909;SDS011;22004;49.120;-0.200;2023-07-30T03:38:00;13.13;;;2.80;;
35909;SDS011;22004;49.120;-0.200;2023-07-30T03:40:26;19.00;;;3.50;;
35909;SDS011;22004;49.120;-0.200;2023-07-30T03:42:51;16.48;;;3.25;;
35909;SDS011;22004;49.120;-0.200;2023-07-30T03:45:17;11.13;;;2.13;;
35909;SDS011;22004;49.120;-0.200;2023-07-30T03:47:42;15.23;;;3.47;;
35909;SDS011;22004;49.120;-0.200;2023-07-30T03:50:07;20.02;;;3.83;;
35909;SDS011;22004;49.120;-0.200;2023-07-30T03:52:33;19.98;;;3.05;;
35909;SDS011;22004;49.120;-0.200;2023-07-30T03:54:58;17.77;;;2.90;;
35909;SDS011;22004;49.120;-0.200;2023-07-30T03:57:24;13.98;;;2.92;;
35909;SDS011;22004;49.120;-0.200;2023-07-30T03:59:49;21.65;;;4.00;;
35909;SDS011;22004;49.120;-0.200;2023-07-30T04:02:14;14.23;;;3.13;;
35909;SDS011;22004;49.120;-0.200;2023-07-30T04:04:41;14.90;;;3.05;;
35909;SDS011;22004;49.120;-0.200;2023-07-30T04:07:08;12.85;;;3.22;;
35909;SDS011;22004;49.120;-0.200;2023-07-30T04:09:34;21.83;;;3.53;;
35909;SDS011;22004;49.120;-0.200;2023-07-30T04:11:59;16.00;;;2.90;;
35909;SDS011;22004;49.120;-0.200;2023-07-30T04:14:24;13.15;;;2.85;;
35909;SDS011;22004;49.120;-0.200;2023-07-30T04:16:50;14.68;;;3.17;;
35909;SDS011;22004;49.120;-0.200;2023-07-30T04:19:15;9.85;;;3.25;;
35909;SDS011;22004;49.120;-0.200;2023-07-30T04:21:40;20.40;;;4.18;;
35909;SDS011;22004;49.120;-0.200;2023-07-30T04:24:06;14.23;;;2.80;;
35909;SDS011;22004;49.120;-0.200;2023-07-30T04:26:31;27.95;;;4.20;;
35909;SDS011;22004;49.120;-0.200;2023-07-30T04:28:56;20.00;;;3.13;;
35909;SDS011;22004;49.120;-0.200;2023-07-30T04:31:22;12.52;;;2.67;;
35909;SDS011;22004;49.120;-0.200;2023-07-30T04:33:47;13.70;;;2.95;;
35909;SDS011;22004;49.120;-0.200;2023-07-30T04:36:12;17.13;;;4.22;;
35909;SDS011;22004;49.120;-0.200;2023-07-30T04:38:38;13.00;;;3.10;;
35909;SDS011;22004;49.120;-0.200;2023-07-30T04:41:03;11.52;;;2.75;;
35909;SDS011;22004;49.120;-0.200;2023-07-30T04:43:28;14.20;;;2.85;;
35909;SDS011;22004;49.120;-0.200;2023-07-30T04:45:54;15.20;;;3.22;;
35909;SDS011;22004;49.120;-0.200;2023-07-30T04:48:19;15.02;;;2.90;;
35909;SDS011;22004;49.120;-0.200;2023-07-30T04:50:44;18.10;;;3.78;;
35909;SDS011;22004;49.120;-0.200;2023-07-30T04:53:10;13.52;;;4.10;;
35909;SDS011;22004;49.120;-0.200;2023-07-30T04:55:35;17.27;;;3.10;;
35909;SDS011;22004;49.120;-0.200;2023-07-30T04:58:00;13.57;;;3.67;;
35909;SDS011;22004;49.120;-0.200;2023-07-30T05:00:26;16.10;;;3.33;;
35909;SDS011;22004;49.120;-0.200;2023-07-30T05:02:51;19.23;;;3.40;;
35909;SDS011;22004;49.120;-0.200;2023-07-30T05:05:16;15.10;;;4.00;;
35909;SDS011;22004;49.120;-0.200;2023-07-30T05:07:42;13.02;;;2.55;;
35909;SDS011;22004;49.120;-0.200;2023-07-30T05:10:07;21.55;;;4.78;;
35909;SDS011;22004;49.120;-0.200;2023-07-30T05:12:35;14.90;;;3.30;;
35909;SDS011;22004;49.120;-0.200;2023-07-30T05:15:01;16.58;;;3.40;;
35909;SDS011;22004;49.120;-0.200;2023-07-30T05:17:26;11.00;;;2.75;;
35909;SDS011;22004;49.120;-0.200;2023-07-30T05:19:52;9.27;;;2.92;;
35909;SDS011;22004;49.120;-0.200;2023-07-30T05:22:17;14.88;;;2.90;;
35909;SDS011;22004;49.120;-0.200;2023-07-30T05:24:42;20.70;;;3.35;;
35909;SDS011;22004;49.120;-0.200;2023-07-30T05:27:08;17.02;;;3.15;;
35909;SDS011;22004;49.120;-0.200;2023-07-30T05:29:33;16.33;;;3.33;;
35909;SDS011;22004;49.120;-0.200;2023-07-30T05:31:59;16.83;;;3.15;;
35909;SDS011;22004;49.120;-0.200;2023-07-30T05:34:24;12.93;;;3.15;;
35909;SDS011;22004;49.120;-0.200;2023-07-30T05:36:49;11.05;;;2.90;;
35909;SDS011;22004;49.120;-0.200;2023-07-30T05:39:15;16.02;;;3.55;;
35909;SDS011;22004;49.120;-0.200;2023-07-30T05:41:40;20.55;;;3.70;;
35909;SDS011;22004;49.120;-0.200;2023-07-30T05:44:05;10.82;;;3.03;;
35909;SDS011;22004;49.120;-0.200;2023-07-30T05:46:31;14.88;;;3.40;;
35909;SDS011;22004;49.120;-0.200;2023-07-30T05:48:56;23.23;;;3.80;;
35909;SDS011;22004;49.120;-0.200;2023-07-30T05:51:22;10.45;;;2.80;;
35909;SDS011;22004;49.120;-0.200;2023-07-30T05:53:47;12.43;;;3.20;;
35909;SDS011;22004;49.120;-0.200;2023-07-30T05:56:12;10.02;;;3.05;;
35909;SDS011;22004;49.120;-0.200;2023-07-30T05:58:39;15.38;;;3.47;;
35909;SDS011;22004;49.120;-0.200;2023-07-30T06:01:04;14.68;;;3.95;;
35909;SDS011;22004;49.120;-0.200;2023-07-30T06:03:30;14.75;;;3.08;;
35909;SDS011;22004;49.120;-0.200;2023-07-30T06:05:55;12.38;;;2.67;;
35909;SDS011;22004;49.120;-0.200;2023-07-30T06:08:20;14.52;;;2.90;;
35909;SDS011;22004;49.120;-0.200;2023-07-30T06:10:46;20.23;;;3.35;;
35909;SDS011;22004;49.120;-0.200;2023-07-30T06:13:12;17.23;;;3.28;;
35909;SDS011;22004;49.120;-0.200;2023-07-30T06:15:37;17.13;;;3.92;;
35909;SDS011;22004;49.120;-0.200;2023-07-30T06:18:02;13.20;;;3.38;;
35909;SDS011;22004;49.120;-0.200;2023-07-30T06:20:28;15.80;;;3.85;;
35909;SDS011;22004;49.120;-0.200;2023-07-30T06:22:54;25.42;;;4.22;;
35909;SDS011;22004;49.120;-0.200;2023-07-30T06:25:19;14.70;;;3.70;;
35909;SDS011;22004;49.120;-0.200;2023-07-30T06:27:45;25.52;;;4.65;;
35909;SDS011;22004;49.120;-0.200;2023-07-30T06:30:10;29.52;;;4.50;;
35909;SDS011;22004;49.120;-0.200;2023-07-30T06:32:36;16.65;;;3.63;;
35909;SDS011;22004;49.120;-0.200;2023-07-30T06:35:01;14.18;;;3.47;;
35909;SDS011;22004;49.120;-0.200;2023-07-30T06:37:28;18.30;;;4.60;;
35909;SDS011;22004;49.120;-0.200;2023-07-30T06:39:53;16.38;;;3.92;;
35909;SDS011;22004;49.120;-0.200;2023-07-30T06:42:18;20.88;;;3.95;;
35909;SDS011;22004;49.120;-0.200;2023-07-30T06:44:44;23.00;;;4.03;;
35909;SDS011;22004;49.120;-0.200;2023-07-30T06:47:09;22.73;;;3.88;;
35909;SDS011;22004;49.120;-0.200;2023-07-30T06:49:34;19.58;;;3.60;;
35909;SDS011;22004;49.120;-0.200;2023-07-30T06:52:00;24.35;;;4.70;;
35909;SDS011;22004;49.120;-0.200;2023-07-30T06:54:26;20.10;;;3.80;;
35909;SDS011;22004;49.120;-0.200;2023-07-30T06:56:53;32.15;;;5.53;;
35909;SDS011;22004;49.120;-0.200;2023-07-30T06:59:18;23.13;;;4.88;;
35909;SDS011;22004;49.120;-0.200;2023-07-30T07:01:43;18.75;;;3.88;;
35909;SDS011;22004;49.120;-0.200;2023-07-30T07:04:09;15.23;;;3.67;;
35909;SDS011;22004;49.120;-0.200;2023-07-30T07:06:34;21.48;;;5.18;;
35909;SDS011;22004;49.120;-0.200;2023-07-30T07:09:00;18.35;;;4.18;;
35909;SDS011;22004;49.120;-0.200;2023-07-30T07:11:25;14.20;;;3.38;;
35909;SDS011;22004;49.120;-0.200;2023-07-30T07:13:50;19.23;;;4.53;;
35909;SDS011;22004;49.120;-0.200;2023-07-30T07:16:16;22.85;;;4.85;;
35909;SDS011;22004;49.120;-0.200;2023-07-30T07:18:41;15.23;;;4.60;;
35909;SDS011;22004;49.120;-0.200;2023-07-30T07:21:06;22.58;;;4.18;;
35909;SDS011;22004;49.120;-0.200;2023-07-30T07:23:33;18.92;;;4.40;;
35909;SDS011;22004;49.120;-0.200;2023-07-30T07:25:58;20.92;;;4.85;;
35909;SDS011;22004;49.120;-0.200;2023-07-30T07:28:24;12.25;;;3.78;;
35909;SDS011;22004;49.120;-0.200;2023-07-30T07:30:49;24.30;;;4.93;;
35909;SDS011;22004;49.120;-0.200;2023-07-30T07:33:15;16.42;;;3.95;;
35909;SDS011;22004;49.120;-0.200;2023-07-30T07:35:40;25.90;;;5.70;;
35909;SDS011;22004;49.120;-0.200;2023-07-30T07:38:05;18.23;;;5.30;;
35909;SDS011;22004;49.120;-0.200;2023-07-30T07:40:35;25.02;;;5.93;;
35909;SDS011;22004;49.120;-0.200;2023-07-30T07:43:07;13.52;;;4.35;;
35909;SDS011;22004;49.120;-0.200;2023-07-30T07:45:33;13.07;;;3.50;;
35909;SDS011;22004;49.120;-0.200;2023-07-30T07:47:59;14.20;;;4.20;;
35909;SDS011;22004;49.120;-0.200;2023-07-30T07:50:24;14.77;;;4.47;;
35909;SDS011;22004;49.120;-0.200;2023-07-30T07:52:49;18.63;;;4.30;;
35909;SDS011;22004;49.120;-0.200;2023-07-30T07:55:15;20.83;;;5.72;;
35909;SDS011;22004;49.120;-0.200;2023-07-30T07:57:40;16.13;;;5.45;;
35909;SDS011;22004;49.120;-0.200;2023-07-30T08:00:07;23.10;;;5.30;;
35909;SDS011;22004;49.120;-0.200;2023-07-30T08:02:33;13.73;;;4.78;;
35909;SDS011;22004;49.120;-0.200;2023-07-30T08:04:59;19.85;;;5.28;;
35909;SDS011;22004;49.120;-0.200;2023-07-30T08:07:24;23.05;;;5.30;;
35909;SDS011;22004;49.120;-0.200;2023-07-30T08:09:50;25.45;;;5.68;;
35909;SDS011;22004;49.120;-0.200;2023-07-30T08:12:16;25.58;;;4.57;;
35909;SDS011;22004;49.120;-0.200;2023-07-30T08:14:42;14.23;;;4.60;;
35909;SDS011;22004;49.120;-0.200;2023-07-30T08:17:07;21.05;;;4.47;;
35909;SDS011;22004;49.120;-0.200;2023-07-30T08:19:32;22.73;;;5.78;;
35909;SDS011;22004;49.120;-0.200;2023-07-30T08:21:58;18.95;;;4.80;;
35909;SDS011;22004;49.120;-0.200;2023-07-30T08:24:23;15.57;;;4.53;;
35909;SDS011;22004;49.120;-0.200;2023-07-30T08:26:49;16.77;;;4.53;;
35909;SDS011;22004;49.120;-0.200;2023-07-30T08:29:14;15.52;;;5.10;;
35909;SDS011;22004;49.120;-0.200;2023-07-30T08:31:40;20.45;;;5.38;;
35909;SDS011;22004;49.120;-0.200;2023-07-30T08:34:06;14.43;;;5.03;;
35909;SDS011;22004;49.120;-0.200;2023-07-30T08:36:31;15.48;;;4.72;;
35909;SDS011;22004;49.120;-0.200;2023-07-30T08:38:57;22.35;;;5.60;;
35909;SDS011;22004;49.120;-0.200;2023-07-30T08:41:22;16.85;;;4.85;;
35909;SDS011;22004;49.120;-0.200;2023-07-30T08:43:48;16.25;;;5.05;;
35909;SDS011;22004;49.120;-0.200;2023-07-30T08:46:14;19.50;;;5.20;;
35909;SDS011;22004;49.120;-0.200;2023-07-30T08:48:40;20.80;;;5.00;;
35909;SDS011;22004;49.120;-0.200;2023-07-30T08:51:06;19.75;;;5.00;;
35909;SDS011;22004;49.120;-0.200;2023-07-30T08:53:31;17.77;;;5.22;;
35909;SDS011;22004;49.120;-0.200;2023-07-30T08:55:57;19.08;;;5.18;;
35909;SDS011;22004;49.120;-0.200;2023-07-30T08:58:23;22.15;;;5.50;;
35909;SDS011;22004;49.120;-0.200;2023-07-30T09:00:51;14.80;;;4.75;;
35909;SDS011;22004;49.120;-0.200;2023-07-30T09:03:19;15.73;;;4.70;;
35909;SDS011;22004;49.120;-0.200;2023-07-30T09:05:47;17.55;;;5.20;;
35909;SDS011;22004;49.120;-0.200;2023-07-30T09:08:13;25.85;;;5.93;;
35909;SDS011;22004;49.120;-0.200;2023-07-30T09:10:39;17.20;;;4.97;;
35909;SDS011;22004;49.120;-0.200;2023-07-30T09:13:05;22.33;;;6.15;;
35909;SDS011;22004;49.120;-0.200;2023-07-30T09:15:31;20.05;;;5.15;;
35909;SDS011;22004;49.120;-0.200;2023-07-30T09:17:58;15.88;;;4.70;;
35909;SDS011;22004;49.120;-0.200;2023-07-30T09:20:25;19.85;;;5.95;;
35909;SDS011;22004;49.120;-0.200;2023-07-30T09:22:50;24.35;;;7.75;;
35909;SDS011;22004;49.120;-0.200;2023-07-30T09:25:17;44.22;;;16.17;;
35909;SDS011;22004;49.120;-0.200;2023-07-30T09:27:47;27.23;;;9.20;;
35909;SDS011;22004;49.120;-0.200;2023-07-30T09:30:14;20.70;;;5.40;;
35909;SDS011;22004;49.120;-0.200;2023-07-30T09:32:39;21.80;;;6.25;;
35909;SDS011;22004;49.120;-0.200;2023-07-30T09:35:08;18.10;;;5.55;;
35909;SDS011;22004;49.120;-0.200;2023-07-30T09:37:38;24.38;;;6.10;;
35909;SDS011;22004;49.120;-0.200;2023-07-30T09:40:06;21.10;;;6.13;;
35909;SDS011;22004;49.120;-0.200;2023-07-30T09:42:33;24.25;;;6.85;;
35909;SDS011;22004;49.120;-0.200;2023-07-30T09:45:02;21.42;;;4.97;;
35909;SDS011;22004;49.120;-0.200;2023-07-30T09:47:30;21.38;;;6.03;;
35909;SDS011;22004;49.120;-0.200;2023-07-30T09:49:55;15.48;;;5.63;;
35909;SDS011;22004;49.120;-0.200;2023-07-30T09:52:21;19.98;;;4.97;;
35909;SDS011;22004;49.120;-0.200;2023-07-30T09:54:47;22.80;;;6.03;;
35909;SDS011;22004;49.120;-0.200;2023-07-30T09:57:14;17.02;;;5.20;;
35909;SDS011;22004;49.120;-0.200;2023-07-30T09:59:40;16.27;;;5.03;;
35909;SDS011;22004;49.120;-0.200;2023-07-30T10:02:05;18.55;;;6.13;;
35909;SDS011;22004;49.120;-0.200;2023-07-30T10:04:35;19.48;;;5.40;;
35909;SDS011;22004;49.120;-0.200;2023-07-30T10:07:08;14.25;;;5.35;;
35909;SDS011;22004;49.120;-0.200;2023-07-30T10:09:40;14.27;;;4.57;;
35909;SDS011;22004;49.120;-0.200;2023-07-30T10:12:14;16.92;;;5.28;;
35909;SDS011;22004;49.120;-0.200;2023-07-30T10:14:41;22.27;;;6.45;;
35909;SDS011;22004;49.120;-0.200;2023-07-30T10:17:09;23.17;;;6.18;;
35909;SDS011;22004;49.120;-0.200;2023-07-30T10:19:36;20.35;;;5.85;;
35909;SDS011;22004;49.120;-0.200;2023-07-30T10:24:37;21.15;;;5.57;;
35909;SDS011;22004;49.120;-0.200;2023-07-30T10:27:06;12.80;;;5.10;;
35909;SDS011;22004;49.120;-0.200;2023-07-30T10:29:34;16.70;;;5.47;;
35909;SDS011;22004;49.120;-0.200;2023-07-30T10:32:00;17.98;;;5.03;;
35909;SDS011;22004;49.120;-0.200;2023-07-30T10:34:43;13.13;;;4.75;;
35909;SDS011;22004;49.120;-0.200;2023-07-30T10:37:18;12.25;;;4.93;;
35909;SDS011;22004;49.120;-0.200;2023-07-30T10:39:48;17.92;;;5.03;;
35909;SDS011;22004;49.120;-0.200;2023-07-30T10:42:14;16.42;;;4.80;;
35909;SDS011;22004;49.120;-0.200;2023-07-30T10:44:43;14.38;;;4.47;;
35909;SDS011;22004;49.120;-0.200;2023-07-30T10:47:09;19.17;;;5.30;;
35909;SDS011;22004;49.120;-0.200;2023-07-30T10:49:38;12.13;;;4.53;;
35909;SDS011;22004;49.120;-0.200;2023-07-30T10:52:05;20.02;;;5.68;;
35909;SDS011;22004;49.120;-0.200;2023-07-30T10:54:34;11.93;;;4.20;;
35909;SDS011;22004;49.120;-0.200;2023-07-30T10:57:00;23.23;;;5.40;;
35909;SDS011;22004;49.120;-0.200;2023-07-30T10:59:26;17.67;;;4.47;;
35909;SDS011;22004;49.120;-0.200;2023-07-30T11:01:52;21.52;;;5.78;;
35909;SDS011;22004;49.120;-0.200;2023-07-30T11:04:18;20.73;;;5.38;;
35909;SDS011;22004;49.120;-0.200;2023-07-30T11:06:45;14.43;;;4.57;;
35909;SDS011;22004;49.120;-0.200;2023-07-30T11:11:45;13.48;;;4.45;;
35909;SDS011;22004;49.120;-0.200;2023-07-30T11:14:17;16.15;;;5.03;;
35909;SDS011;22004;49.120;-0.200;2023-07-30T11:16:50;19.80;;;4.82;;
35909;SDS011;22004;49.120;-0.200;2023-07-30T11:19:17;12.50;;;4.35;;
35909;SDS011;22004;49.120;-0.200;2023-07-30T11:21:51;18.13;;;4.57;;
35909;SDS011;22004;49.120;-0.200;2023-07-30T11:24:18;14.18;;;4.13;;
35909;SDS011;22004;49.120;-0.200;2023-07-30T11:26:44;12.20;;;3.65;;
35909;SDS011;22004;49.120;-0.200;2023-07-30T11:29:17;11.85;;;4.03;;
35909;SDS011;22004;49.120;-0.200;2023-07-30T11:31:43;13.10;;;3.60;;
35909;SDS011;22004;49.120;-0.200;2023-07-30T11:34:10;14.30;;;3.97;;
35909;SDS011;22004;49.120;-0.200;2023-07-30T11:36:36;14.35;;;4.55;;
35909;SDS011;22004;49.120;-0.200;2023-07-30T11:39:02;9.52;;;3.72;;
35909;SDS011;22004;49.120;-0.200;2023-07-30T11:41:28;11.93;;;3.60;;
35909;SDS011;22004;49.120;-0.200;2023-07-30T11:43:54;12.38;;;4.25;;
35909;SDS011;22004;49.120;-0.200;2023-07-30T11:46:20;10.18;;;3.70;;
35909;SDS011;22004;49.120;-0.200;2023-07-30T11:48:48;13.63;;;3.92;;
35909;SDS011;22004;49.120;-0.200;2023-07-30T11:51:28;12.35;;;4.05;;
35909;SDS011;22004;49.120;-0.200;2023-07-30T11:53:55;17.20;;;5.05;;
35909;SDS011;22004;49.120;-0.200;2023-07-30T11:56:25;12.85;;;4.50;;
35909;SDS011;22004;49.120;-0.200;2023-07-30T11:58:55;12.23;;;3.95;;
35909;SDS011;22004;49.120;-0.200;2023-07-30T12:01:23;12.95;;;4.55;;
35909;SDS011;22004;49.120;-0.200;2023-07-30T12:03:50;14.05;;;4.38;;
35909;SDS011;22004;49.120;-0.200;2023-07-30T12:06:19;15.13;;;4.50;;
35909;SDS011;22004;49.120;-0.200;2023-07-30T12:08:44;14.07;;;4.43;;
35909;SDS011;22004;49.120;-0.200;2023-07-30T12:11:13;11.90;;;4.20;;
35909;SDS011;22004;49.120;-0.200;2023-07-30T12:13:44;10.90;;;5.30;;
35909;SDS011;22004;49.120;-0.200;2023-07-30T12:16:11;13.68;;;4.97;;
35909;SDS011;22004;49.120;-0.200;2023-07-30T12:18:37;14.50;;;4.30;;
35909;SDS011;22004;49.120;-0.200;2023-07-30T12:21:03;11.93;;;3.85;;
35909;SDS011;22004;49.120;-0.200;2023-07-30T12:23:31;12.98;;;4.32;;
35909;SDS011;22004;49.120;-0.200;2023-07-30T12:25:57;14.95;;;4.63;;
35909;SDS011;22004;49.120;-0.200;2023-07-30T12:28:22;9.55;;;3.85;;
35909;SDS011;22004;49.120;-0.200;2023-07-30T12:30:48;12.30;;;4.20;;
35909;SDS011;22004;49.120;-0.200;2023-07-30T12:33:13;12.18;;;4.95;;
35909;SDS011;22004;49.120;-0.200;2023-07-30T12:35:38;16.73;;;4.65;;
35909;SDS011;22004;49.120;-0.200;2023-07-30T12:38:04;12.40;;;4.07;;
35909;SDS011;22004;49.120;-0.200;2023-07-30T12:40:29;13.20;;;4.32;;
35909;SDS011;22004;49.120;-0.200;2023-07-30T12:42:58;21.08;;;5.45;;
35909;SDS011;22004;49.120;-0.200;2023-07-30T12:45:28;13.98;;;5.57;;
35909;SDS011;22004;49.120;-0.200;2023-07-30T12:47:53;10.90;;;4.20;;
35909;SDS011;22004;49.120;-0.200;2023-07-30T12:50:19;19.42;;;5.13;;
35909;SDS011;22004;49.120;-0.200;2023-07-30T12:52:44;12.75;;;4.75;;
35909;SDS011;22004;49.120;-0.200;2023-07-30T12:55:09;15.18;;;4.55;;
35909;SDS011;22004;49.120;-0.200;2023-07-30T12:57:35;11.25;;;4.45;;
35909;SDS011;22004;49.120;-0.200;2023-07-30T13:00:01;17.25;;;4.90;;
35909;SDS011;22004;49.120;-0.200;2023-07-30T13:02:27;17.02;;;4.95;;
35909;SDS011;22004;49.120;-0.200;2023-07-30T13:04:52;16.17;;;5.50;;
35909;SDS011;22004;49.120;-0.200;2023-07-30T13:07:17;15.02;;;4.60;;
35909;SDS011;22004;49.120;-0.200;2023-07-30T13:09:43;10.52;;;4.25;;
35909;SDS011;22004;49.120;-0.200;2023-07-30T13:12:10;12.18;;;4.82;;
35909;SDS011;22004;49.120;-0.200;2023-07-30T13:14:35;11.30;;;4.53;;
35909;SDS011;22004;49.120;-0.200;2023-07-30T13:17:01;14.25;;;4.95;;
35909;SDS011;22004;49.120;-0.200;2023-07-30T13:19:26;16.15;;;6.10;;
35909;SDS011;22004;49.120;-0.200;2023-07-30T13:21:53;19.13;;;5.10;;
35909;SDS011;22004;49.120;-0.200;2023-07-30T13:24:18;18.42;;;4.93;;
35909;SDS011;22004;49.120;-0.200;2023-07-30T13:26:43;16.00;;;5.43;;
35909;SDS011;22004;49.120;-0.200;2023-07-30T13:29:09;9.00;;;4.03;;
35909;SDS011;22004;49.120;-0.200;2023-07-30T13:31:35;13.68;;;4.80;;
35909;SDS011;22004;49.120;-0.200;2023-07-30T13:34:00;14.25;;;4.75;;
35909;SDS011;22004;49.120;-0.200;2023-07-30T13:36:25;17.17;;;5.20;;
35909;SDS011;22004;49.120;-0.200;2023-07-30T13:38:51;10.27;;;4.40;;
35909;SDS011;22004;49.120;-0.200;2023-07-30T13:41:16;12.02;;;4.57;;
35909;SDS011;22004;49.120;-0.200;2023-07-30T13:43:41;14.00;;;4.65;;
35909;SDS011;22004;49.120;-0.200;2023-07-30T13:46:07;10.30;;;4.63;;
35909;SDS011;22004;49.120;-0.200;2023-07-30T13:48:32;12.43;;;4.50;;
35909;SDS011;22004;49.120;-0.200;2023-07-30T13:50:57;13.70;;;4.70;;
35909;SDS011;22004;49.120;-0.200;2023-07-30T13:53:23;13.20;;;4.85;;
35909;SDS011;22004;49.120;-0.200;2023-07-30T13:55:48;11.38;;;4.75;;
35909;SDS011;22004;49.120;-0.200;2023-07-30T13:58:13;11.82;;;4.85;;
35909;SDS011;22004;49.120;-0.200;2023-07-30T14:00:40;13.90;;;5.20;;
35909;SDS011;22004;49.120;-0.200;2023-07-30T14:03:06;15.05;;;5.35;;
35909;SDS011;22004;49.120;-0.200;2023-07-30T14:05:31;14.35;;;5.47;;
35909;SDS011;22004;49.120;-0.200;2023-07-30T14:07:57;16.75;;;5.93;;
35909;SDS011;22004;49.120;-0.200;2023-07-30T14:10:23;15.02;;;6.20;;
35909;SDS011;22004;49.120;-0.200;2023-07-30T14:12:48;15.70;;;5.00;;
35909;SDS011;22004;49.120;-0.200;2023-07-30T14:15:14;18.25;;;5.70;;
35909;SDS011;22004;49.120;-0.200;2023-07-30T14:17:40;11.40;;;5.13;;
35909;SDS011;22004;49.120;-0.200;2023-07-30T14:20:06;10.73;;;5.32;;